sensor_id;sensor_type;location;lat;lon;timestamp;P1;durP1;ratioP1;P2;durP2;ratioP2
20142;SDS011;10509;46.476;7.134;2022-09-03T00:01:39;3.00;;;2.33;;
20142;SDS011;10509;46.476;7.134;2022-09-03T00:04:08;2.20;;;1.93;;
20142;SDS011;10509;46.476;7.134;2022-09-03T00:06:37;2.20;;;2.00;;
20142;SDS011;10509;46.476;7.134;2022-09-03T00:09:11;3.30;;;1.83;;
20142;SDS011;10509;46.476;7.134;2022-09-03T00:14:27;2.63;;;1.83;;
20142;SDS011;10509;46.476;7.134;2022-09-03T00:17:03;3.00;;;1.80;;
20142;SDS011;10509;46.476;7.134;2022-09-03T00:19:31;2.97;;;1.93;;
20142;SDS011;10509;46.476;7.134;2022-09-03T00:21:59;2.30;;;2.17;;
20142;SDS011;10509;46.476;7.134;2022-09-03T00:24:28;2.50;;;2.00;;
20142;SDS011;10509;46.476;7.134;2022-09-03T00:26:56;2.70;;;2.27;;
20142;SDS011;10509;46.476;7.134;2022-09-03T00:29:27;2.20;;;2.00;;
20142;SDS011;10509;46.476;7.134;2022-09-03T00:31:56;2.57;;;2.30;;
20142;SDS011;10509;46.476;7.134;2022-09-03T00:34:35;2.30;;;2.07;;
20142;SDS011;10509;46.476;7.134;2022-09-03T00:37:04;2.63;;;2.10;;
20142;SDS011;10509;46.476;7.134;2022-09-03T00:39:32;2.83;;;2.60;;
20142;SDS011;10509;46.476;7.134;2022-09-03T00:50:02;2.57;;;2.27;;
20142;SDS011;10509;46.476;7.134;2022-09-03T01:00:30;1.73;;;1.63;;
20142;SDS011;10509;46.476;7.134;2022-09-03T01:02:58;2.23;;;1.97;;
20142;SDS011;10509;46.476;7.134;2022-09-03T01:05:30;2.93;;;2.33;;
20142;SDS011;10509;46.476;7.134;2022-09-03T01:13:11;4.63;;;2.37;;
20142;SDS011;10509;46.476;7.134;2022-09-03T01:15:43;2.60;;;2.40;;
20142;SDS011;10509;46.476;7.134;2022-09-03T01:20:51;2.10;;;2.00;;
20142;SDS011;10509;46.476;7.134;2022-09-03T01:26:05;3.40;;;1.70;;
20142;SDS011;10509;46.476;7.134;2022-09-03T01:28:57;1.80;;;1.70;;
20142;SDS011;10509;46.476;7.134;2022-09-03T01:31:31;2.17;;;1.97;;
20142;SDS011;10509;46.476;7.134;2022-09-03T01:34:19;2.17;;;1.93;;
20142;SDS011;10509;46.476;7.134;2022-09-03T01:39:22;2.03;;;1.70;;
20142;SDS011;10509;46.476;7.134;2022-09-03T01:47:38;2.70;;;2.00;;
20142;SDS011;10509;46.476;7.134;2022-09-03T01:51:01;3.90;;;2.43;;
20142;SDS011;10509;46.476;7.134;2022-09-03T01:53:06;3.27;;;2.20;;
20142;SDS011;10509;46.476;7.134;2022-09-03T01:58:23;2.20;;;1.93;;
20142;SDS011;10509;46.476;7.134;2022-09-03T02:00:54;2.90;;;2.20;;
20142;SDS011;10509;46.476;7.134;2022-09-03T02:03:23;2.80;;;2.20;;
20142;SDS011;10509;46.476;7.134;2022-09-03T02:05:50;2.60;;;2.20;;
20142;SDS011;10509;46.476;7.134;2022-09-03T02:08:17;3.87;;;2.40;;
20142;SDS011;10509;46.476;7.134;2022-09-03T02:10:46;2.17;;;2.00;;
20142;SDS011;10509;46.476;7.134;2022-09-03T02:13:17;2.97;;;2.40;;
20142;SDS011;10509;46.476;7.134;2022-09-03T02:15:45;3.93;;;2.33;;
20142;SDS011;10509;46.476;7.134;2022-09-03T02:18:15;4.27;;;2.23;;
20142;SDS011;10509;46.476;7.134;2022-09-03T02:20:42;2.90;;;2.70;;
20142;SDS011;10509;46.476;7.134;2022-09-03T02:23:08;3.20;;;2.87;;
20142;SDS011;10509;46.476;7.134;2022-09-03T02:25:36;2.97;;;2.67;;
20142;SDS011;10509;46.476;7.134;2022-09-03T02:28:03;2.70;;;2.50;;
20142;SDS011;10509;46.476;7.134;2022-09-03T02:30:29;2.77;;;2.30;;
20142;SDS011;10509;46.476;7.134;2022-09-03T02:32:55;3.10;;;2.30;;
20142;SDS011;10509;46.476;7.134;2022-09-03T02:35:21;2.23;;;2.10;;
20142;SDS011;10509;46.476;7.134;2022-09-03T02:37:47;3.27;;;2.40;;
20142;SDS011;10509;46.476;7.134;2022-09-03T02:40:14;2.93;;;2.73;;
20142;SDS011;10509;46.476;7.134;2022-09-03T02:42:41;3.10;;;2.90;;
20142;SDS011;10509;46.476;7.134;2022-09-03T02:45:21;3.00;;;2.70;;
20142;SDS011;10509;46.476;7.134;2022-09-03T02:47:49;2.40;;;2.20;;
20142;SDS011;10509;46.476;7.134;2022-09-03T02:50:16;1.93;;;1.80;;
20142;SDS011;10509;46.476;7.134;2022-09-03T02:52:43;2.40;;;2.30;;
20142;SDS011;10509;46.476;7.134;2022-09-03T02:55:09;3.67;;;2.27;;
20142;SDS011;10509;46.476;7.134;2022-09-03T02:57:35;2.50;;;2.00;;
20142;SDS011;10509;46.476;7.134;2022-09-03T03:00:01;1.73;;;1.63;;
20142;SDS011;10509;46.476;7.134;2022-09-03T03:02:27;2.47;;;2.27;;
20142;SDS011;10509;46.476;7.134;2022-09-03T03:04:53;2.20;;;2.00;;
20142;SDS011;10509;46.476;7.134;2022-09-03T03:07:19;1.90;;;1.80;;
20142;SDS011;10509;46.476;7.134;2022-09-03T03:09:45;2.30;;;2.20;;
20142;SDS011;10509;46.476;7.134;2022-09-03T03:12:11;2.20;;;2.00;;
20142;SDS011;10509;46.476;7.134;2022-09-03T03:14:38;2.00;;;1.90;;
20142;SDS011;10509;46.476;7.134;2022-09-03T03:17:04;1.83;;;1.73;;
20142;SDS011;10509;46.476;7.134;2022-09-03T03:19:29;2.30;;;2.10;;
20142;SDS011;10509;46.476;7.134;2022-09-03T03:21:55;3.20;;;1.87;;
20142;SDS011;10509;46.476;7.134;2022-09-03T03:24:21;2.23;;;2.07;;
20142;SDS011;10509;46.476;7.134;2022-09-03T03:26:48;2.13;;;1.93;;
20142;SDS011;10509;46.476;7.134;2022-09-03T03:29:15;2.40;;;2.20;;
20142;SDS011;10509;46.476;7.134;2022-09-03T03:31:41;3.27;;;2.00;;
20142;SDS011;10509;46.476;7.134;2022-09-03T03:34:08;2.53;;;2.33;;
20142;SDS011;10509;46.476;7.134;2022-09-03T03:36:34;2.40;;;2.20;;
20142;SDS011;10509;46.476;7.134;2022-09-03T03:39:00;2.30;;;1.90;;
20142;SDS011;10509;46.476;7.134;2022-09-03T03:41:28;2.30;;;1.87;;
20142;SDS011;10509;46.476;7.134;2022-09-03T03:43:59;3.47;;;2.20;;
20142;SDS011;10509;46.476;7.134;2022-09-03T03:46:28;3.63;;;1.93;;
20142;SDS011;10509;46.476;7.134;2022-09-03T03:48:54;2.13;;;1.93;;
20142;SDS011;10509;46.476;7.134;2022-09-03T03:51:20;2.47;;;2.27;;
20142;SDS011;10509;46.476;7.134;2022-09-03T03:53:46;3.70;;;2.70;;
20142;SDS011;10509;46.476;7.134;2022-09-03T03:56:13;3.00;;;2.80;;
20142;SDS011;10509;46.476;7.134;2022-09-03T03:58:40;2.27;;;2.07;;
20142;SDS011;10509;46.476;7.134;2022-09-03T04:03:34;2.77;;;2.00;;
20142;SDS011;10509;46.476;7.134;2022-09-03T04:06:00;1.90;;;1.80;;
20142;SDS011;10509;46.476;7.134;2022-09-03T04:08:27;2.43;;;2.20;;
20142;SDS011;10509;46.476;7.134;2022-09-03T04:10:53;2.07;;;1.97;;
20142;SDS011;10509;46.476;7.134;2022-09-03T04:13:19;1.90;;;1.80;;
20142;SDS011;10509;46.476;7.134;2022-09-03T04:15:45;1.80;;;1.70;;
20142;SDS011;10509;46.476;7.134;2022-09-03T04:18:11;1.80;;;1.67;;
20142;SDS011;10509;46.476;7.134;2022-09-03T04:20:38;2.13;;;1.87;;
20142;SDS011;10509;46.476;7.134;2022-09-03T04:23:04;3.63;;;2.13;;
20142;SDS011;10509;46.476;7.134;2022-09-03T04:25:30;2.10;;;1.90;;
20142;SDS011;10509;46.476;7.134;2022-09-03T04:27:56;2.13;;;1.97;;
20142;SDS011;10509;46.476;7.134;2022-09-03T04:30:22;2.23;;;2.03;;
20142;SDS011;10509;46.476;7.134;2022-09-03T04:32:49;2.00;;;1.70;;
20142;SDS011;10509;46.476;7.134;2022-09-03T04:35:22;1.90;;;1.80;;
20142;SDS011;10509;46.476;7.134;2022-09-03T04:37:49;2.10;;;1.87;;
20142;SDS011;10509;46.476;7.134;2022-09-03T04:40:15;2.00;;;1.60;;
20142;SDS011;10509;46.476;7.134;2022-09-03T04:42:41;2.20;;;2.00;;
20142;SDS011;10509;46.476;7.134;2022-09-03T04:45:07;2.30;;;2.00;;
20142;SDS011;10509;46.476;7.134;2022-09-03T04:47:34;1.70;;;1.60;;
20142;SDS011;10509;46.476;7.134;2022-09-03T04:50:01;2.43;;;1.90;;
20142;SDS011;10509;46.476;7.134;2022-09-03T04:52:28;2.07;;;1.97;;
20142;SDS011;10509;46.476;7.134;2022-09-03T04:54:55;1.70;;;1.60;;
20142;SDS011;10509;46.476;7.134;2022-09-03T04:57:21;2.00;;;1.90;;
20142;SDS011;10509;46.476;7.134;2022-09-03T04:59:47;3.07;;;1.60;;
20142;SDS011;10509;46.476;7.134;2022-09-03T05:02:14;1.87;;;1.70;;
20142;SDS011;10509;46.476;7.134;2022-09-03T05:04:40;1.70;;;1.60;;
20142;SDS011;10509;46.476;7.134;2022-09-03T05:07:06;1.50;;;1.40;;
20142;SDS011;10509;46.476;7.134;2022-09-03T05:09:32;2.13;;;1.83;;
20142;SDS011;10509;46.476;7.134;2022-09-03T05:11:58;1.80;;;1.70;;
20142;SDS011;10509;46.476;7.134;2022-09-03T05:14:25;1.83;;;1.70;;
20142;SDS011;10509;46.476;7.134;2022-09-03T05:16:51;1.83;;;1.67;;
20142;SDS011;10509;46.476;7.134;2022-09-03T05:19:17;1.70;;;1.43;;
20142;SDS011;10509;46.476;7.134;2022-09-03T05:21:43;1.90;;;1.80;;
20142;SDS011;10509;46.476;7.134;2022-09-03T05:24:09;1.80;;;1.60;;
20142;SDS011;10509;46.476;7.134;2022-09-03T05:26:36;2.03;;;1.67;;
20142;SDS011;10509;46.476;7.134;2022-09-03T05:29:03;1.70;;;1.60;;
20142;SDS011;10509;46.476;7.134;2022-09-03T05:31:32;1.70;;;1.60;;
20142;SDS011;10509;46.476;7.134;2022-09-03T05:34:03;1.67;;;1.57;;
20142;SDS011;10509;46.476;7.134;2022-09-03T05:36:30;1.40;;;1.30;;
20142;SDS011;10509;46.476;7.134;2022-09-03T05:38:57;2.03;;;1.60;;
20142;SDS011;10509;46.476;7.134;2022-09-03T05:41:23;2.13;;;1.70;;
20142;SDS011;10509;46.476;7.134;2022-09-03T05:43:50;1.73;;;1.63;;
20142;SDS011;10509;46.476;7.134;2022-09-03T05:46:20;2.23;;;2.00;;
20142;SDS011;10509;46.476;7.134;2022-09-03T05:48:54;1.80;;;1.70;;
20142;SDS011;10509;46.476;7.134;2022-09-03T05:51:20;2.10;;;1.90;;
20142;SDS011;10509;46.476;7.134;2022-09-03T05:53:47;1.70;;;1.60;;
20142;SDS011;10509;46.476;7.134;2022-09-03T05:56:14;1.90;;;1.50;;
20142;SDS011;10509;46.476;7.134;2022-09-03T05:58:42;1.70;;;1.60;;
20142;SDS011;10509;46.476;7.134;2022-09-03T06:03:45;2.63;;;1.20;;
20142;SDS011;10509;46.476;7.134;2022-09-03T06:06:11;1.50;;;1.40;;
20142;SDS011;10509;46.476;7.134;2022-09-03T06:08:38;2.57;;;1.53;;
20142;SDS011;10509;46.476;7.134;2022-09-03T06:11:05;2.47;;;1.47;;
20142;SDS011;10509;46.476;7.134;2022-09-03T06:13:31;1.40;;;1.30;;
20142;SDS011;10509;46.476;7.134;2022-09-03T06:16:02;1.40;;;1.17;;
20142;SDS011;10509;46.476;7.134;2022-09-03T06:18:29;2.00;;;1.30;;
20142;SDS011;10509;46.476;7.134;2022-09-03T06:20:55;1.33;;;1.13;;
20142;SDS011;10509;46.476;7.134;2022-09-03T06:23:22;1.20;;;1.10;;
20142;SDS011;10509;46.476;7.134;2022-09-03T06:25:58;1.03;;;1.00;;
20142;SDS011;10509;46.476;7.134;2022-09-03T06:28:24;1.33;;;1.23;;
20142;SDS011;10509;46.476;7.134;2022-09-03T06:30:51;1.00;;;0.90;;
20142;SDS011;10509;46.476;7.134;2022-09-03T06:33:17;1.53;;;1.00;;
20142;SDS011;10509;46.476;7.134;2022-09-03T06:35:43;1.70;;;1.13;;
20142;SDS011;10509;46.476;7.134;2022-09-03T06:38:10;2.00;;;1.80;;
20142;SDS011;10509;46.476;7.134;2022-09-03T06:40:39;2.00;;;1.90;;
20142;SDS011;10509;46.476;7.134;2022-09-03T06:43:05;1.87;;;1.30;;
20142;SDS011;10509;46.476;7.134;2022-09-03T06:45:31;1.50;;;1.30;;
20142;SDS011;10509;46.476;7.134;2022-09-03T06:47:57;1.27;;;1.17;;
20142;SDS011;10509;46.476;7.134;2022-09-03T06:50:23;1.20;;;1.10;;
20142;SDS011;10509;46.476;7.134;2022-09-03T06:52:50;1.10;;;1.00;;
20142;SDS011;10509;46.476;7.134;2022-09-03T06:55:19;2.20;;;1.10;;
20142;SDS011;10509;46.476;7.134;2022-09-03T06:57:45;1.23;;;1.00;;
20142;SDS011;10509;46.476;7.134;2022-09-03T07:00:11;0.93;;;0.83;;
20142;SDS011;10509;46.476;7.134;2022-09-03T07:02:38;1.07;;;0.97;;
20142;SDS011;10509;46.476;7.134;2022-09-03T07:05:06;1.23;;;1.13;;
20142;SDS011;10509;46.476;7.134;2022-09-03T07:07:32;3.17;;;0.90;;
20142;SDS011;10509;46.476;7.134;2022-09-03T07:09:58;2.50;;;1.00;;
20142;SDS011;10509;46.476;7.134;2022-09-03T07:12:25;1.17;;;0.97;;
20142;SDS011;10509;46.476;7.134;2022-09-03T07:14:51;0.80;;;0.80;;
20142;SDS011;10509;46.476;7.134;2022-09-03T07:17:17;0.73;;;0.73;;
20142;SDS011;10509;46.476;7.134;2022-09-03T07:19:43;0.90;;;0.90;;
20142;SDS011;10509;46.476;7.134;2022-09-03T07:22:09;0.80;;;0.80;;
20142;SDS011;10509;46.476;7.134;2022-09-03T07:24:35;1.23;;;0.90;;
20142;SDS011;10509;46.476;7.134;2022-09-03T07:27:01;2.13;;;0.90;;
20142;SDS011;10509;46.476;7.134;2022-09-03T07:29:29;1.30;;;1.20;;
20142;SDS011;10509;46.476;7.134;2022-09-03T07:31:55;1.37;;;0.90;;
20142;SDS011;10509;46.476;7.134;2022-09-03T07:34:21;2.07;;;1.07;;
20142;SDS011;10509;46.476;7.134;2022-09-03T07:36:51;2.03;;;1.20;;
20142;SDS011;10509;46.476;7.134;2022-09-03T07:39:18;1.10;;;0.83;;
20142;SDS011;10509;46.476;7.134;2022-09-03T07:41:44;3.10;;;1.40;;
20142;SDS011;10509;46.476;7.134;2022-09-03T07:44:11;1.43;;;0.90;;
20142;SDS011;10509;46.476;7.134;2022-09-03T07:46:39;1.33;;;1.00;;
20142;SDS011;10509;46.476;7.134;2022-09-03T07:49:05;1.53;;;1.00;;
20142;SDS011;10509;46.476;7.134;2022-09-03T07:51:35;1.40;;;1.00;;
20142;SDS011;10509;46.476;7.134;2022-09-03T07:54:03;1.00;;;0.90;;
20142;SDS011;10509;46.476;7.134;2022-09-03T07:56:31;2.30;;;1.13;;
20142;SDS011;10509;46.476;7.134;2022-09-03T07:58:59;1.13;;;1.00;;
20142;SDS011;10509;46.476;7.134;2022-09-03T08:01:27;1.67;;;1.20;;
20142;SDS011;10509;46.476;7.134;2022-09-03T08:03:53;1.50;;;1.40;;
20142;SDS011;10509;46.476;7.134;2022-09-03T08:06:23;1.17;;;1.00;;
20142;SDS011;10509;46.476;7.134;2022-09-03T08:08:53;1.37;;;0.93;;
20142;SDS011;10509;46.476;7.134;2022-09-03T08:11:21;1.33;;;1.23;;
20142;SDS011;10509;46.476;7.134;2022-09-03T08:13:56;2.10;;;1.00;;
20142;SDS011;10509;46.476;7.134;2022-09-03T08:16:25;1.53;;;0.93;;
20142;SDS011;10509;46.476;7.134;2022-09-03T08:18:52;1.93;;;0.90;;
20142;SDS011;10509;46.476;7.134;2022-09-03T08:21:19;1.20;;;1.10;;
20142;SDS011;10509;46.476;7.134;2022-09-03T08:23:46;1.40;;;1.20;;
20142;SDS011;10509;46.476;7.134;2022-09-03T08:26:13;1.40;;;1.10;;
20142;SDS011;10509;46.476;7.134;2022-09-03T08:28:39;1.17;;;1.00;;
20142;SDS011;10509;46.476;7.134;2022-09-03T08:31:15;1.20;;;1.10;;
20142;SDS011;10509;46.476;7.134;2022-09-03T08:33:43;1.00;;;1.00;;
20142;SDS011;10509;46.476;7.134;2022-09-03T08:36:10;2.20;;;1.10;;
20142;SDS011;10509;46.476;7.134;2022-09-03T08:38:40;1.13;;;1.00;;
20142;SDS011;10509;46.476;7.134;2022-09-03T08:43:58;1.30;;;1.07;;
20142;SDS011;10509;46.476;7.134;2022-09-03T08:46:47;1.57;;;1.17;;
20142;SDS011;10509;46.476;7.134;2022-09-03T08:49:17;1.20;;;1.00;;
20142;SDS011;10509;46.476;7.134;2022-09-03T08:51:43;1.30;;;1.20;;
20142;SDS011;10509;46.476;7.134;2022-09-03T08:54:11;0.80;;;0.80;;
20142;SDS011;10509;46.476;7.134;2022-09-03T08:56:39;0.70;;;0.70;;
20142;SDS011;10509;46.476;7.134;2022-09-03T08:59:07;0.87;;;0.83;;
20142;SDS011;10509;46.476;7.134;2022-09-03T09:01:51;1.23;;;0.80;;
20142;SDS011;10509;46.476;7.134;2022-09-03T09:05:04;0.80;;;0.80;;
20142;SDS011;10509;46.476;7.134;2022-09-03T09:12:28;1.02;;;0.93;;
20142;SDS011;10509;46.476;7.134;2022-09-03T09:15:03;0.77;;;0.77;;
20142;SDS011;10509;46.476;7.134;2022-09-03T09:20:15;1.27;;;0.73;;
20142;SDS011;10509;46.476;7.134;2022-09-03T09:22:44;0.70;;;0.70;;
20142;SDS011;10509;46.476;7.134;2022-09-03T09:25:18;0.77;;;0.77;;
20142;SDS011;10509;46.476;7.134;2022-09-03T09:28:31;0.93;;;0.93;;
20142;SDS011;10509;46.476;7.134;2022-09-03T09:30:31;1.35;;;1.25;;
20142;SDS011;10509;46.476;7.134;2022-09-03T09:32:57;1.58;;;0.95;;
20142;SDS011;10509;46.476;7.134;2022-09-03T09:35:24;1.13;;;0.88;;
20142;SDS011;10509;46.476;7.134;2022-09-03T09:37:51;1.60;;;1.10;;
20142;SDS011;10509;46.476;7.134;2022-09-03T09:43:02;1.05;;;0.90;;
20142;SDS011;10509;46.476;7.134;2022-09-03T09:45:28;1.90;;;1.00;;
20142;SDS011;10509;46.476;7.134;2022-09-03T09:47:58;1.10;;;1.00;;
20142;SDS011;10509;46.476;7.134;2022-09-03T09:50:24;2.55;;;2.35;;
20142;SDS011;10509;46.476;7.134;2022-09-03T09:53:04;1.00;;;0.90;;
20142;SDS011;10509;46.476;7.134;2022-09-03T09:55:47;1.40;;;1.30;;
20142;SDS011;10509;46.476;7.134;2022-09-03T09:58:13;1.75;;;1.48;;
20142;SDS011;10509;46.476;7.134;2022-09-03T10:00:39;1.17;;;0.80;;
20142;SDS011;10509;46.476;7.134;2022-09-03T10:03:08;1.50;;;0.82;;
20142;SDS011;10509;46.476;7.134;2022-09-03T10:05:37;9.20;;;1.00;;
20142;SDS011;10509;46.476;7.134;2022-09-03T10:08:17;1.85;;;0.90;;
20142;SDS011;10509;46.476;7.134;2022-09-03T10:10:45;1.63;;;1.08;;
20142;SDS011;10509;46.476;7.134;2022-09-03T10:13:16;1.27;;;1.10;;
20142;SDS011;10509;46.476;7.134;2022-09-03T10:16:04;2.80;;;1.00;;
20142;SDS011;10509;46.476;7.134;2022-09-03T10:18:44;1.33;;;1.20;;
20142;SDS011;10509;46.476;7.134;2022-09-03T10:21:13;1.05;;;0.90;;
20142;SDS011;10509;46.476;7.134;2022-09-03T10:26:15;1.13;;;1.02;;
20142;SDS011;10509;46.476;7.134;2022-09-03T10:28:42;1.00;;;0.90;;
20142;SDS011;10509;46.476;7.134;2022-09-03T10:36:18;2.25;;;1.00;;
20142;SDS011;10509;46.476;7.134;2022-09-03T10:38:52;1.38;;;1.10;;
20142;SDS011;10509;46.476;7.134;2022-09-03T10:46:28;1.20;;;0.90;;
20142;SDS011;10509;46.476;7.134;2022-09-03T10:59:24;1.45;;;0.90;;
20142;SDS011;10509;46.476;7.134;2022-09-03T11:07:04;1.40;;;1.30;;
20142;SDS011;10509;46.476;7.134;2022-09-03T11:09:34;1.20;;;1.10;;
20142;SDS011;10509;46.476;7.134;2022-09-03T11:12:03;1.10;;;0.83;;
20142;SDS011;10509;46.476;7.134;2022-09-03T11:14:41;1.20;;;1.10;;
20142;SDS011;10509;46.476;7.134;2022-09-03T11:17:11;1.48;;;0.85;;
20142;SDS011;10509;46.476;7.134;2022-09-03T11:19:45;1.20;;;1.03;;
20142;SDS011;10509;46.476;7.134;2022-09-03T11:22:15;1.38;;;0.90;;
20142;SDS011;10509;46.476;7.134;2022-09-03T11:24:42;1.20;;;1.10;;
20142;SDS011;10509;46.476;7.134;2022-09-03T11:29:56;1.67;;;1.40;;
20142;SDS011;10509;46.476;7.134;2022-09-03T11:32:25;1.20;;;1.10;;
20142;SDS011;10509;46.476;7.134;2022-09-03T11:34:54;1.20;;;0.90;;
20142;SDS011;10509;46.476;7.134;2022-09-03T11:37:24;0.87;;;0.87;;
20142;SDS011;10509;46.476;7.134;2022-09-03T11:39:58;1.20;;;1.10;;
20142;SDS011;10509;46.476;7.134;2022-09-03T11:42:28;1.00;;;0.90;;
20142;SDS011;10509;46.476;7.134;2022-09-03T11:44:58;0.80;;;0.80;;
20142;SDS011;10509;46.476;7.134;2022-09-03T11:47:36;1.30;;;0.90;;
20142;SDS011;10509;46.476;7.134;2022-09-03T11:50:15;1.10;;;0.80;;
20142;SDS011;10509;46.476;7.134;2022-09-03T11:52:45;1.08;;;0.90;;
20142;SDS011;10509;46.476;7.134;2022-09-03T11:55:11;2.05;;;0.82;;
20142;SDS011;10509;46.476;7.134;2022-09-03T11:57:41;1.75;;;1.00;;
20142;SDS011;10509;46.476;7.134;2022-09-03T12:02:40;1.17;;;0.93;;
20142;SDS011;10509;46.476;7.134;2022-09-03T12:08:06;1.30;;;0.90;;
20142;SDS011;10509;46.476;7.134;2022-09-03T12:15:59;1.15;;;0.70;;
20142;SDS011;10509;46.476;7.134;2022-09-03T12:18:30;1.55;;;1.00;;
20142;SDS011;10509;46.476;7.134;2022-09-03T12:23:28;3.25;;;1.40;;
20142;SDS011;10509;46.476;7.134;2022-09-03T12:25:54;0.98;;;0.80;;
20142;SDS011;10509;46.476;7.134;2022-09-03T12:28:22;2.50;;;1.10;;
20142;SDS011;10509;46.476;7.134;2022-09-03T12:30:49;1.73;;;0.90;;
20142;SDS011;10509;46.476;7.134;2022-09-03T12:33:17;1.77;;;0.98;;
20142;SDS011;10509;46.476;7.134;2022-09-03T12:35:54;1.08;;;0.85;;
20142;SDS011;10509;46.476;7.134;2022-09-03T12:38:24;1.00;;;0.90;;
20142;SDS011;10509;46.476;7.134;2022-09-03T12:40:50;1.35;;;0.80;;
20142;SDS011;10509;46.476;7.134;2022-09-03T12:43:17;1.42;;;1.00;;
20142;SDS011;10509;46.476;7.134;2022-09-03T12:45:47;1.83;;;0.88;;
20142;SDS011;10509;46.476;7.134;2022-09-03T12:48:15;1.50;;;0.80;;
20142;SDS011;10509;46.476;7.134;2022-09-03T12:50:42;1.45;;;1.00;;
20142;SDS011;10509;46.476;7.134;2022-09-03T12:53:09;1.42;;;1.10;;
20142;SDS011;10509;46.476;7.134;2022-09-03T12:58:39;2.88;;;1.42;;
20142;SDS011;10509;46.476;7.134;2022-09-03T13:01:08;1.40;;;1.20;;
20142;SDS011;10509;46.476;7.134;2022-09-03T13:06:07;1.52;;;0.90;;
20142;SDS011;10509;46.476;7.134;2022-09-03T13:08:37;2.50;;;1.00;;
20142;SDS011;10509;46.476;7.134;2022-09-03T13:11:05;1.70;;;0.95;;
20142;SDS011;10509;46.476;7.134;2022-09-03T13:13:32;2.42;;;1.00;;
20142;SDS011;10509;46.476;7.134;2022-09-03T13:18:32;1.42;;;1.00;;
20142;SDS011;10509;46.476;7.134;2022-09-03T13:21:09;1.27;;;0.90;;
20142;SDS011;10509;46.476;7.134;2022-09-03T13:24:03;1.20;;;1.05;;
20142;SDS011;10509;46.476;7.134;2022-09-03T13:26:38;1.98;;;1.10;;
20142;SDS011;10509;46.476;7.134;2022-09-03T13:31:40;1.15;;;0.90;;
20142;SDS011;10509;46.476;7.134;2022-09-03T13:34:21;1.52;;;1.10;;
20142;SDS011;10509;46.476;7.134;2022-09-03T13:39:19;1.33;;;1.10;;
20142;SDS011;10509;46.476;7.134;2022-09-03T13:47:34;2.40;;;1.20;;
20142;SDS011;10509;46.476;7.134;2022-09-03T13:50:14;1.60;;;1.08;;
20142;SDS011;10509;46.476;7.134;2022-09-03T13:53:01;1.13;;;1.00;;
20142;SDS011;10509;46.476;7.134;2022-09-03T13:55:47;1.05;;;0.93;;
20142;SDS011;10509;46.476;7.134;2022-09-03T13:58:25;1.10;;;1.00;;
20142;SDS011;10509;46.476;7.134;2022-09-03T14:01:01;2.47;;;1.30;;
20142;SDS011;10509;46.476;7.134;2022-09-03T14:03:42;2.22;;;1.20;;
20142;SDS011;10509;46.476;7.134;2022-09-03T14:06:12;1.30;;;1.00;;
20142;SDS011;10509;46.476;7.134;2022-09-03T14:11:31;1.20;;;0.77;;
20142;SDS011;10509;46.476;7.134;2022-09-03T14:14:11;1.42;;;0.80;;
20142;SDS011;10509;46.476;7.134;2022-09-03T14:24:51;1.10;;;0.80;;
20142;SDS011;10509;46.476;7.134;2022-09-03T14:27:25;1.67;;;0.93;;
20142;SDS011;10509;46.476;7.134;2022-09-03T14:29:53;1.45;;;0.90;;
20142;SDS011;10509;46.476;7.134;2022-09-03T14:32:29;1.25;;;0.77;;
20142;SDS011;10509;46.476;7.134;2022-09-03T14:47:58;1.73;;;0.70;;
20142;SDS011;10509;46.476;7.134;2022-09-03T14:58:21;0.95;;;0.70;;
20142;SDS011;10509;46.476;7.134;2022-09-03T15:00:56;1.13;;;0.60;;
20142;SDS011;10509;46.476;7.134;2022-09-03T15:11:19;1.98;;;0.80;;
20142;SDS011;10509;46.476;7.134;2022-09-03T15:21:24;0.60;;;0.60;;
20142;SDS011;10509;46.476;7.134;2022-09-03T15:24:03;1.10;;;0.70;;
20142;SDS011;10509;46.476;7.134;2022-09-03T15:37:01;0.65;;;0.60;;
20142;SDS011;10509;46.476;7.134;2022-09-03T15:39:33;1.52;;;0.73;;
20142;SDS011;10509;46.476;7.134;2022-09-03T15:44:27;1.30;;;0.77;;
20142;SDS011;10509;46.476;7.134;2022-09-03T15:55:11;6.07;;;1.02;;
20142;SDS011;10509;46.476;7.134;2022-09-03T15:57:46;1.13;;;0.65;;
20142;SDS011;10509;46.476;7.134;2022-09-03T16:00:16;1.23;;;0.85;;
20142;SDS011;10509;46.476;7.134;2022-09-03T16:02:49;0.95;;;0.80;;
20142;SDS011;10509;46.476;7.134;2022-09-03T16:05:20;1.45;;;1.00;;
20142;SDS011;10509;46.476;7.134;2022-09-03T16:10:31;2.35;;;0.80;;
20142;SDS011;10509;46.476;7.134;2022-09-03T16:13:24;1.48;;;0.90;;
20142;SDS011;10509;46.476;7.134;2022-09-03T16:16:03;1.35;;;0.88;;
20142;SDS011;10509;46.476;7.134;2022-09-03T16:18:35;1.25;;;0.88;;
20142;SDS011;10509;46.476;7.134;2022-09-03T16:29:10;2.00;;;1.00;;
20142;SDS011;10509;46.476;7.134;2022-09-03T17:00:09;2.50;;;1.10;;
20142;SDS011;10509;46.476;7.134;2022-09-03T17:10:46;1.30;;;1.20;;
20142;SDS011;10509;46.476;7.134;2022-09-03T17:15:51;1.10;;;1.00;;
20142;SDS011;10509;46.476;7.134;2022-09-03T17:49:59;2.80;;;2.40;;
20142;SDS011;10509;46.476;7.134;2022-09-03T17:52:52;1.50;;;1.38;;
20142;SDS011;10509;46.476;7.134;2022-09-03T17:55:33;1.33;;;1.10;;
20142;SDS011;10509;46.476;7.134;2022-09-03T18:16:34;1.55;;;1.20;;
20142;SDS011;10509;46.476;7.134;2022-09-03T18:19:05;1.85;;;1.27;;
20142;SDS011;10509;46.476;7.134;2022-09-03T18:21:42;9.38;;;3.40;;
20142;SDS011;10509;46.476;7.134;2022-09-03T18:27:45;1.87;;;1.10;;
20142;SDS011;10509;46.476;7.134;2022-09-03T18:30:31;4.23;;;1.63;;
20142;SDS011;10509;46.476;7.134;2022-09-03T18:33:17;1.70;;;1.27;;
20142;SDS011;10509;46.476;7.134;2022-09-03T18:36:04;1.90;;;1.17;;
20142;SDS011;10509;46.476;7.134;2022-09-03T18:38:49;1.93;;;1.37;;
20142;SDS011;10509;46.476;7.134;2022-09-03T18:44:43;1.97;;;1.03;;
20142;SDS011;10509;46.476;7.134;2022-09-03T18:47:40;1.77;;;1.00;;
20142;SDS011;10509;46.476;7.134;2022-09-03T18:50:28;3.80;;;1.33;;
20142;SDS011;10509;46.476;7.134;2022-09-03T18:56:09;1.20;;;1.10;;
20142;SDS011;10509;46.476;7.134;2022-09-03T19:01:43;1.60;;;1.00;;
20142;SDS011;10509;46.476;7.134;2022-09-03T19:07:17;1.73;;;1.00;;
20142;SDS011;10509;46.476;7.134;2022-09-03T19:10:06;1.77;;;1.23;;
20142;SDS011;10509;46.476;7.134;2022-09-03T19:13:12;2.57;;;1.10;;
20142;SDS011;10509;46.476;7.134;2022-09-03T19:16:20;1.60;;;1.17;;
20142;SDS011;10509;46.476;7.134;2022-09-03T19:22:09;2.23;;;1.10;;
20142;SDS011;10509;46.476;7.134;2022-09-03T19:25:05;1.87;;;1.30;;
20142;SDS011;10509;46.476;7.134;2022-09-03T19:28:10;2.20;;;0.90;;
20142;SDS011;10509;46.476;7.134;2022-09-03T19:45:53;1.10;;;0.90;;
20142;SDS011;10509;46.476;7.134;2022-09-03T19:54:40;2.60;;;1.40;;
20142;SDS011;10509;46.476;7.134;2022-09-03T19:57:24;2.87;;;1.37;;
20142;SDS011;10509;46.476;7.134;2022-09-03T20:00:10;2.87;;;1.10;;
20142;SDS011;10509;46.476;7.134;2022-09-03T20:02:55;3.23;;;1.17;;
20142;SDS011;10509;46.476;7.134;2022-09-03T20:05:41;2.80;;;1.17;;
20142;SDS011;10509;46.476;7.134;2022-09-03T20:08:26;2.30;;;1.13;;
20142;SDS011;10509;46.476;7.134;2022-09-03T20:11:16;1.33;;;1.10;;
20142;SDS011;10509;46.476;7.134;2022-09-03T20:13:42;1.00;;;0.90;;
20142;SDS011;10509;46.476;7.134;2022-09-03T20:16:29;1.63;;;0.90;;
20142;SDS011;10509;46.476;7.134;2022-09-03T20:21:42;1.17;;;1.00;;
20142;SDS011;10509;46.476;7.134;2022-09-03T20:27:01;1.70;;;1.50;;
20142;SDS011;10509;46.476;7.134;2022-09-03T20:37:20;1.43;;;1.03;;
20142;SDS011;10509;46.476;7.134;2022-09-03T20:40:07;1.20;;;0.90;;
20142;SDS011;10509;46.476;7.134;2022-09-03T20:42:42;1.83;;;0.97;;
20142;SDS011;10509;46.476;7.134;2022-09-03T20:55:42;1.17;;;1.10;;
20142;SDS011;10509;46.476;7.134;2022-09-03T21:00:51;1.60;;;1.00;;
20142;SDS011;10509;46.476;7.134;2022-09-03T21:03:21;1.80;;;1.30;;
20142;SDS011;10509;46.476;7.134;2022-09-03T21:08:32;2.17;;;1.20;;
20142;SDS011;10509;46.476;7.134;2022-09-03T21:11:01;1.97;;;1.20;;